sensor_id;sensor_type;location;lat;lon;timestamp;pressure;altitude;pressure_sealevel;temperature;humidity
6028;BME280;3042;43.194;27.646;2023-02-21T00:00:43;101727.22;;;9.33;99.87
6028;BME280;3042;43.194;27.646;2023-02-21T00:03:28;101713.22;;;9.42;99.66
6028;BME280;3042;43.194;27.646;2023-02-21T00:06:12;101629.91;;;9.03;98.73
6028;BME280;3042;43.194;27.646;2023-02-21T00:08:56;101722.75;;;9.17;98.25
6028;BME280;3042;43.194;27.646;2023-02-21T00:11:43;101706.28;;;9.28;98.32
6028;BME280;3042;43.194;27.646;2023-02-21T00:14:29;101685.66;;;9.41;97.77
6028;BME280;3042;43.194;27.646;2023-02-21T00:17:13;101669.41;;;9.16;97.27
6028;BME280;3042;43.194;27.646;2023-02-21T00:19:57;101666.53;;;9.11;96.96
6028;BME280;3042;43.194;27.646;2023-02-21T00:22:42;101615.03;;;8.73;97.25
6028;BME280;3042;43.194;27.646;2023-02-21T00:25:27;101694.88;;;9.24;97.46
6028;BME280;3042;43.194;27.646;2023-02-21T00:28:12;101679.09;;;9.33;96.51
6028;BME280;3042;43.194;27.646;2023-02-21T00:30:58;101675.34;;;9.41;97.03
6028;BME280;3042;43.194;27.646;2023-02-21T00:33:42;101673.94;;;9.33;96.49
6028;BME280;3042;43.194;27.646;2023-02-21T00:36:26;101664.22;;;9.42;96.62
6028;BME280;3042;43.194;27.646;2023-02-21T00:39:10;101670.66;;;9.36;96.42
6028;BME280;3042;43.194;27.646;2023-02-21T00:41:55;101665.63;;;9.37;96.88
6028;BME280;3042;43.194;27.646;2023-02-21T00:44:39;101672.94;;;9.31;98.19
6028;BME280;3042;43.194;27.646;2023-02-21T00:47:25;101617.63;;;9.26;100.00
6028;BME280;3042;43.194;27.646;2023-02-21T00:50:09;101626.34;;;9.28;100.00
6028;BME280;3042;43.194;27.646;2023-02-21T00:52:54;101600.03;;;9.34;100.00
6028;BME280;3042;43.194;27.646;2023-02-21T00:55:38;101639.00;;;9.65;100.00
6028;BME280;3042;43.194;27.646;2023-02-21T00:58:22;101607.06;;;9.49;100.00
6028;BME280;3042;43.194;27.646;2023-02-21T01:01:07;101623.66;;;9.81;100.00
6028;BME280;3042;43.194;27.646;2023-02-21T01:03:53;101542.44;;;9.61;100.00
6028;BME280;3042;43.194;27.646;2023-02-21T01:06:38;101618.50;;;10.09;100.00
6028;BME280;3042;43.194;27.646;2023-02-21T01:09:22;101582.44;;;9.55;100.00
6028;BME280;3042;43.194;27.646;2023-02-21T01:12:07;101616.84;;;9.97;100.00
6028;BME280;3042;43.194;27.646;2023-02-21T01:14:51;101589.13;;;9.79;100.00
6028;BME280;3042;43.194;27.646;2023-02-21T01:17:36;101516.47;;;9.17;100.00
6028;BME280;3042;43.194;27.646;2023-02-21T01:20:21;101512.03;;;9.42;100.00
6028;BME280;3042;43.194;27.646;2023-02-21T01:23:06;101617.56;;;9.94;100.00
6028;BME280;3042;43.194;27.646;2023-02-21T01:25:50;101569.09;;;9.75;100.00
6028;BME280;3042;43.194;27.646;2023-02-21T01:28:34;101447.25;;;9.23;100.00
6028;BME280;3042;43.194;27.646;2023-02-21T01:31:19;101557.41;;;9.95;100.00
6028;BME280;3042;43.194;27.646;2023-02-21T01:34:04;101592.84;;;10.27;100.00
6028;BME280;3042;43.194;27.646;2023-02-21T01:36:50;101608.34;;;10.27;100.00
6028;BME280;3042;43.194;27.646;2023-02-21T01:39:34;101577.03;;;10.51;100.00
6028;BME280;3042;43.194;27.646;2023-02-21T01:42:19;101580.53;;;10.66;100.00
6028;BME280;3042;43.194;27.646;2023-02-21T01:45:33;101558.25;;;11.14;100.00
6028;BME280;3042;43.194;27.646;2023-02-21T01:48:22;101545.38;;;11.16;100.00
6028;BME280;3042;43.194;27.646;2023-02-21T01:54:14;101443.78;;;11.35;100.00
6028;BME280;3042;43.194;27.646;2023-02-21T01:57:01;101544.69;;;12.17;100.00
6028;BME280;3042;43.194;27.646;2023-02-21T01:59:47;101534.28;;;12.33;100.00
6028;BME280;3042;43.194;27.646;2023-02-21T02:02:36;101528.53;;;12.57;100.00
6028;BME280;3042;43.194;27.646;2023-02-21T02:05:22;101512.00;;;12.91;100.00
6028;BME280;3042;43.194;27.646;2023-02-21T02:08:08;101509.75;;;13.16;100.00
6028;BME280;3042;43.194;27.646;2023-02-21T02:11:01;101427.63;;;12.99;100.00
6028;BME280;3042;43.194;27.646;2023-02-21T02:14:07;101483.34;;;13.64;100.00
6028;BME280;3042;43.194;27.646;2023-02-21T02:16:43;101475.13;;;13.74;98.59
6028;BME280;3042;43.194;27.646;2023-02-21T02:19:35;101469.97;;;13.95;97.49
6028;BME280;3042;43.194;27.646;2023-02-21T02:25:06;101478.75;;;13.78;96.28
6028;BME280;3042;43.194;27.646;2023-02-21T02:27:47;101310.81;;;12.76;95.53
6028;BME280;3042;43.194;27.646;2023-02-21T02:33:44;101461.78;;;13.86;94.78
6028;BME280;3042;43.194;27.646;2023-02-21T02:36:18;101464.38;;;13.86;94.28
6028;BME280;3042;43.194;27.646;2023-02-21T02:38:52;101454.25;;;13.92;94.13
6028;BME280;3042;43.194;27.646;2023-02-21T02:41:29;101460.97;;;13.87;93.93
6028;BME280;3042;43.194;27.646;2023-02-21T02:44:05;101473.84;;;13.64;92.43
6028;BME280;3042;43.194;27.646;2023-02-21T02:46:39;101490.00;;;13.38;92.72
6028;BME280;3042;43.194;27.646;2023-02-21T02:49:09;101470.19;;;13.02;92.76
6028;BME280;3042;43.194;27.646;2023-02-21T02:51:39;101503.38;;;13.09;92.61
6028;BME280;3042;43.194;27.646;2023-02-21T02:54:06;101522.22;;;12.87;92.59
6028;BME280;3042;43.194;27.646;2023-02-21T02:56:33;101522.16;;;12.86;92.42
6028;BME280;3042;43.194;27.646;2023-02-21T02:59:04;101425.22;;;12.46;92.44
6028;BME280;3042;43.194;27.646;2023-02-21T03:01:45;101511.06;;;12.88;92.61
6028;BME280;3042;43.194;27.646;2023-02-21T03:04:29;101423.31;;;12.07;93.47
6028;BME280;3042;43.194;27.646;2023-02-21T03:07:04;101341.81;;;11.66;93.17
6028;BME280;3042;43.194;27.646;2023-02-21T03:09:38;101516.47;;;12.39;94.14
6028;BME280;3042;43.194;27.646;2023-02-21T03:12:09;101511.66;;;12.29;94.55
6028;BME280;3042;43.194;27.646;2023-02-21T03:14:47;101505.50;;;12.27;95.58
6028;BME280;3042;43.194;27.646;2023-02-21T03:17:16;101478.44;;;12.04;96.25
6028;BME280;3042;43.194;27.646;2023-02-21T03:19:46;101496.59;;;12.40;96.52
6028;BME280;3042;43.194;27.646;2023-02-21T03:22:20;101502.69;;;12.58;96.78
6028;BME280;3042;43.194;27.646;2023-02-21T03:24:49;101464.94;;;12.45;96.51
6028;BME280;3042;43.194;27.646;2023-02-21T03:27:18;101484.84;;;12.64;96.98
6028;BME280;3042;43.194;27.646;2023-02-21T03:29:47;101488.47;;;12.68;96.02
6028;BME280;3042;43.194;27.646;2023-02-21T03:32:20;101473.88;;;13.07;95.35
6028;BME280;3042;43.194;27.646;2023-02-21T03:34:46;101475.97;;;12.97;95.44
6028;BME280;3042;43.194;27.646;2023-02-21T03:37:21;101470.28;;;13.23;95.18
6028;BME280;3042;43.194;27.646;2023-02-21T03:39:54;101478.63;;;13.16;93.76
6028;BME280;3042;43.194;27.646;2023-02-21T03:42:21;101479.16;;;13.09;93.00
6028;BME280;3042;43.194;27.646;2023-02-21T03:44:48;101484.25;;;13.07;93.00
6028;BME280;3042;43.194;27.646;2023-02-21T03:47:15;101479.63;;;13.20;92.79
6028;BME280;3042;43.194;27.646;2023-02-21T03:49:42;101477.91;;;13.20;92.26
6028;BME280;3042;43.194;27.646;2023-02-21T03:52:11;101460.91;;;13.27;92.23
6028;BME280;3042;43.194;27.646;2023-02-21T03:54:40;101461.66;;;13.24;92.02
6028;BME280;3042;43.194;27.646;2023-02-21T03:57:07;101466.34;;;13.32;91.83
6028;BME280;3042;43.194;27.646;2023-02-21T03:59:34;101462.41;;;13.40;91.09
6028;BME280;3042;43.194;27.646;2023-02-21T04:02:01;101462.66;;;13.46;91.26
6028;BME280;3042;43.194;27.646;2023-02-21T04:04:28;101454.88;;;13.46;90.54
6028;BME280;3042;43.194;27.646;2023-02-21T04:06:55;101448.31;;;13.54;90.61
6028;BME280;3042;43.194;27.646;2023-02-21T04:09:22;101449.47;;;13.61;90.04
6028;BME280;3042;43.194;27.646;2023-02-21T04:11:52;101420.63;;;13.55;89.80
6028;BME280;3042;43.194;27.646;2023-02-21T04:14:19;101424.25;;;13.39;89.22
6028;BME280;3042;43.194;27.646;2023-02-21T04:16:46;101450.91;;;13.54;88.94
6028;BME280;3042;43.194;27.646;2023-02-21T04:19:13;101444.31;;;13.62;89.07
6028;BME280;3042;43.194;27.646;2023-02-21T04:21:40;101405.00;;;13.34;88.52
6028;BME280;3042;43.194;27.646;2023-02-21T04:24:07;101447.88;;;13.64;88.89
6028;BME280;3042;43.194;27.646;2023-02-21T04:26:34;101444.88;;;13.55;88.59
6028;BME280;3042;43.194;27.646;2023-02-21T04:29:03;101442.56;;;13.61;88.92
6028;BME280;3042;43.194;27.646;2023-02-21T04:31:30;101402.03;;;13.44;88.48
6028;BME280;3042;43.194;27.646;2023-02-21T04:33:58;101431.94;;;13.76;88.14
6028;BME280;3042;43.194;27.646;2023-02-21T04:36:25;101423.94;;;13.71;87.95
6028;BME280;3042;43.194;27.646;2023-02-21T04:38:52;101439.13;;;13.62;87.48
6028;BME280;3042;43.194;27.646;2023-02-21T04:41:20;101443.13;;;13.54;87.43
6028;BME280;3042;43.194;27.646;2023-02-21T04:43:47;101442.38;;;13.37;87.62
6028;BME280;3042;43.194;27.646;2023-02-21T04:46:17;101424.97;;;13.75;88.14
6028;BME280;3042;43.194;27.646;2023-02-21T04:48:45;101427.38;;;13.70;87.53
6028;BME280;3042;43.194;27.646;2023-02-21T04:51:13;101423.31;;;13.56;87.14
6028;BME280;3042;43.194;27.646;2023-02-21T04:53:41;101436.44;;;13.40;87.38
6028;BME280;3042;43.194;27.646;2023-02-21T04:56:08;101430.72;;;13.27;86.48
6028;BME280;3042;43.194;27.646;2023-02-21T04:58:37;101423.41;;;13.20;86.63
6028;BME280;3042;43.194;27.646;2023-02-21T05:01:04;101434.75;;;13.03;87.47
6028;BME280;3042;43.194;27.646;2023-02-21T05:03:33;101434.53;;;13.18;87.58
6028;BME280;3042;43.194;27.646;2023-02-21T05:06:00;101448.97;;;13.11;87.43
6028;BME280;3042;43.194;27.646;2023-02-21T05:08:27;101450.78;;;12.94;87.73
6028;BME280;3042;43.194;27.646;2023-02-21T05:10:54;101452.16;;;12.86;88.32
6028;BME280;3042;43.194;27.646;2023-02-21T05:13:21;101464.31;;;12.69;88.52
6028;BME280;3042;43.194;27.646;2023-02-21T05:15:48;101460.72;;;12.85;89.26
6028;BME280;3042;43.194;27.646;2023-02-21T05:18:15;101447.19;;;13.10;89.56
6028;BME280;3042;43.194;27.646;2023-02-21T05:20:49;101328.38;;;12.64;89.80
6028;BME280;3042;43.194;27.646;2023-02-21T05:23:16;101444.22;;;13.40;89.73
6028;BME280;3042;43.194;27.646;2023-02-21T05:25:58;101292.44;;;12.91;88.90
6028;BME280;3042;43.194;27.646;2023-02-21T05:28:25;101404.69;;;13.87;89.30
6028;BME280;3042;43.194;27.646;2023-02-21T05:30:52;101396.59;;;14.01;88.80
6028;BME280;3042;43.194;27.646;2023-02-21T05:33:19;101291.69;;;13.55;88.83
6028;BME280;3042;43.194;27.646;2023-02-21T05:35:48;101381.13;;;14.47;88.81
6028;BME280;3042;43.194;27.646;2023-02-21T05:38:16;101357.84;;;14.50;89.02
6028;BME280;3042;43.194;27.646;2023-02-21T05:40:44;101369.31;;;14.78;88.93
6028;BME280;3042;43.194;27.646;2023-02-21T05:43:11;101304.03;;;14.72;88.68
6028;BME280;3042;43.194;27.646;2023-02-21T05:45:38;101376.22;;;15.24;88.90
6028;BME280;3042;43.194;27.646;2023-02-21T05:48:05;101378.63;;;15.44;89.16
6028;BME280;3042;43.194;27.646;2023-02-21T05:50:32;101370.59;;;15.63;89.37
6028;BME280;3042;43.194;27.646;2023-02-21T05:53:01;101297.47;;;15.57;89.29
6028;BME280;3042;43.194;27.646;2023-02-21T05:55:28;101369.22;;;16.00;88.60
6028;BME280;3042;43.194;27.646;2023-02-21T05:57:55;101325.47;;;15.90;88.14
6028;BME280;3042;43.194;27.646;2023-02-21T06:00:24;101369.25;;;16.57;88.51
6028;BME280;3042;43.194;27.646;2023-02-21T06:02:53;101371.47;;;16.72;88.05
6028;BME280;3042;43.194;27.646;2023-02-21T06:05:21;101366.09;;;16.96;88.26
6028;BME280;3042;43.194;27.646;2023-02-21T06:07:48;101355.00;;;16.75;86.79
6028;BME280;3042;43.194;27.646;2023-02-21T06:10:17;101346.09;;;17.28;86.10
6028;BME280;3042;43.194;27.646;2023-02-21T06:12:44;101271.72;;;17.16;86.04
6028;BME280;3042;43.194;27.646;2023-02-21T06:15:11;101268.13;;;17.45;85.31
6028;BME280;3042;43.194;27.646;2023-02-21T06:17:38;101355.78;;;18.39;84.17
6028;BME280;3042;43.194;27.646;2023-02-21T06:20:07;101306.00;;;18.37;82.68
6028;BME280;3042;43.194;27.646;2023-02-21T06:22:34;101345.31;;;18.78;81.65
6028;BME280;3042;43.194;27.646;2023-02-21T06:25:01;101337.03;;;19.02;81.29
6028;BME280;3042;43.194;27.646;2023-02-21T06:27:29;101327.41;;;19.48;81.26
6028;BME280;3042;43.194;27.646;2023-02-21T06:29:56;101324.22;;;19.68;79.77
6028;BME280;3042;43.194;27.646;2023-02-21T06:32:23;101325.91;;;20.19;78.99
6028;BME280;3042;43.194;27.646;2023-02-21T06:34:52;101195.16;;;19.87;77.34
6028;BME280;3042;43.194;27.646;2023-02-21T06:37:19;101302.94;;;20.66;75.31
6028;BME280;3042;43.194;27.646;2023-02-21T06:39:46;101324.59;;;20.49;70.50
6028;BME280;3042;43.194;27.646;2023-02-21T06:42:13;101333.56;;;20.02;69.64
6028;BME280;3042;43.194;27.646;2023-02-21T06:44:43;101322.50;;;20.23;69.64
6028;BME280;3042;43.194;27.646;2023-02-21T06:47:11;101340.41;;;19.94;69.92
6028;BME280;3042;43.194;27.646;2023-02-21T06:49:38;101352.97;;;19.61;70.15
6028;BME280;3042;43.194;27.646;2023-02-21T06:52:05;101364.59;;;19.29;69.97
6028;BME280;3042;43.194;27.646;2023-02-21T06:54:32;101371.31;;;19.14;70.87
6028;BME280;3042;43.194;27.646;2023-02-21T06:56:59;101369.84;;;19.29;71.21
6028;BME280;3042;43.194;27.646;2023-02-21T06:59:27;101323.44;;;18.77;71.93
6028;BME280;3042;43.194;27.646;2023-02-21T07:01:56;101344.59;;;18.87;72.65
6028;BME280;3042;43.194;27.646;2023-02-21T07:04:23;101307.16;;;18.50;72.62
6028;BME280;3042;43.194;27.646;2023-02-21T07:06:51;101381.69;;;19.08;72.25
6028;BME280;3042;43.194;27.646;2023-02-21T07:09:18;101324.56;;;18.89;73.10
6028;BME280;3042;43.194;27.646;2023-02-21T07:11:45;101348.44;;;19.04;72.10
6028;BME280;3042;43.194;27.646;2023-02-21T07:14:13;101367.41;;;19.38;72.10
6028;BME280;3042;43.194;27.646;2023-02-21T07:16:40;101361.41;;;19.45;71.31
6028;BME280;3042;43.194;27.646;2023-02-21T07:19:10;101348.34;;;19.47;71.27
6028;BME280;3042;43.194;27.646;2023-02-21T07:21:40;101354.25;;;19.35;70.83
6028;BME280;3042;43.194;27.646;2023-02-21T07:24:07;101265.63;;;19.12;71.42
6028;BME280;3042;43.194;27.646;2023-02-21T07:26:34;101208.31;;;18.81;70.62
6028;BME280;3042;43.194;27.646;2023-02-21T07:29:03;101328.63;;;19.69;69.93
6028;BME280;3042;43.194;27.646;2023-02-21T07:31:30;101318.59;;;19.96;69.93
6028;BME280;3042;43.194;27.646;2023-02-21T07:33:57;101312.56;;;20.03;69.90
6028;BME280;3042;43.194;27.646;2023-02-21T07:36:26;101253.06;;;19.99;68.66
6028;BME280;3042;43.194;27.646;2023-02-21T07:38:53;101300.72;;;20.30;68.42
6028;BME280;3042;43.194;27.646;2023-02-21T07:41:20;101209.44;;;20.08;67.92
6028;BME280;3042;43.194;27.646;2023-02-21T07:43:47;101291.53;;;20.64;66.76
6028;BME280;3042;43.194;27.646;2023-02-21T07:46:16;101270.78;;;20.87;64.91
6028;BME280;3042;43.194;27.646;2023-02-21T07:48:43;101236.16;;;20.44;63.66
6028;BME280;3042;43.194;27.646;2023-02-21T07:51:10;101263.25;;;21.21;64.83
6028;BME280;3042;43.194;27.646;2023-02-21T07:53:39;101243.16;;;21.33;64.97
6028;BME280;3042;43.194;27.646;2023-02-21T07:56:06;101251.03;;;21.33;64.60
6028;BME280;3042;43.194;27.646;2023-02-21T07:58:33;101233.66;;;21.45;64.30
6028;BME280;3042;43.194;27.646;2023-02-21T08:01:02;101228.50;;;21.61;64.00
6028;BME280;3042;43.194;27.646;2023-02-21T08:03:29;101174.09;;;21.47;62.24
6028;BME280;3042;43.194;27.646;2023-02-21T08:05:57;101212.03;;;21.92;62.59
6028;BME280;3042;43.194;27.646;2023-02-21T08:08:24;101213.03;;;22.13;62.77
6028;BME280;3042;43.194;27.646;2023-02-21T08:10:52;101184.75;;;21.77;60.12
6028;BME280;3042;43.194;27.646;2023-02-21T08:13:19;101149.34;;;21.22;59.63
6028;BME280;3042;43.194;27.646;2023-02-21T08:15:46;101085.13;;;20.88;59.56
6028;BME280;3042;43.194;27.646;2023-02-21T08:18:16;101196.47;;;22.34;59.57
6028;BME280;3042;43.194;27.646;2023-02-21T08:20:45;101198.09;;;22.17;58.58
6028;BME280;3042;43.194;27.646;2023-02-21T08:23:12;101174.50;;;22.32;58.27
6028;BME280;3042;43.194;27.646;2023-02-21T08:25:39;101187.66;;;22.23;58.03
6028;BME280;3042;43.194;27.646;2023-02-21T08:28:08;101135.00;;;22.35;57.86
6028;BME280;3042;43.194;27.646;2023-02-21T08:30:35;101126.03;;;21.81;57.43
6028;BME280;3042;43.194;27.646;2023-02-21T08:33:02;101156.16;;;22.60;57.41
6028;BME280;3042;43.194;27.646;2023-02-21T08:35:30;101155.25;;;22.45;57.09
6028;BME280;3042;43.194;27.646;2023-02-21T08:37:57;101151.72;;;22.39;57.09
6028;BME280;3042;43.194;27.646;2023-02-21T08:40:27;101149.09;;;22.55;57.05
6028;BME280;3042;43.194;27.646;2023-02-21T08:42:55;101111.28;;;22.23;56.97
6028;BME280;3042;43.194;27.646;2023-02-21T08:45:25;101135.06;;;22.75;56.86
6028;BME280;3042;43.194;27.646;2023-02-21T08:47:53;100998.03;;;22.01;56.45
6028;BME280;3042;43.194;27.646;2023-02-21T08:50:24;101052.50;;;22.24;56.84
6028;BME280;3042;43.194;27.646;2023-02-21T08:52:52;101127.13;;;22.57;56.59
6028;BME280;3042;43.194;27.646;2023-02-21T08:55:19;101117.50;;;22.80;56.75
6028;BME280;3042;43.194;27.646;2023-02-21T08:57:47;101121.88;;;22.61;56.15
6028;BME280;3042;43.194;27.646;2023-02-21T09:00:15;101138.53;;;22.49;56.30
6028;BME280;3042;43.194;27.646;2023-02-21T09:02:44;101120.13;;;22.82;56.86
6028;BME280;3042;43.194;27.646;2023-02-21T09:05:15;101116.59;;;22.87;55.80
6028;BME280;3042;43.194;27.646;2023-02-21T09:07:43;101118.38;;;22.82;55.30
6028;BME280;3042;43.194;27.646;2023-02-21T09:10:10;101112.22;;;23.23;55.48
6028;BME280;3042;43.194;27.646;2023-02-21T09:12:37;101098.13;;;23.39;55.65
6028;BME280;3042;43.194;27.646;2023-02-21T09:15:05;101099.81;;;23.64;54.87
6028;BME280;3042;43.194;27.646;2023-02-21T09:17:33;101092.75;;;23.72;54.51
6028;BME280;3042;43.194;27.646;2023-02-21T09:20:04;101093.59;;;23.80;54.23
6028;BME280;3042;43.194;27.646;2023-02-21T09:22:32;101040.06;;;23.49;53.63
6028;BME280;3042;43.194;27.646;2023-02-21T09:24:59;101044.50;;;23.39;53.12
6028;BME280;3042;43.194;27.646;2023-02-21T09:27:26;101091.09;;;23.42;52.76
6028;BME280;3042;43.194;27.646;2023-02-21T09:30:03;101075.16;;;23.77;52.66
6028;BME280;3042;43.194;27.646;2023-02-21T09:32:31;101042.63;;;23.76;53.05
6028;BME280;3042;43.194;27.646;2023-02-21T09:35:00;101046.91;;;23.96;52.71
6028;BME280;3042;43.194;27.646;2023-02-21T09:37:28;101054.81;;;23.96;52.68
6028;BME280;3042;43.194;27.646;2023-02-21T09:39:57;100971.59;;;23.27;52.68
6028;BME280;3042;43.194;27.646;2023-02-21T09:42:28;101039.66;;;24.26;52.31
6028;BME280;3042;43.194;27.646;2023-02-21T09:44:55;101039.75;;;24.12;52.34
6028;BME280;3042;43.194;27.646;2023-02-21T09:47:26;101041.44;;;24.20;52.70
6028;BME280;3042;43.194;27.646;2023-02-21T09:49:58;101030.66;;;24.51;51.88
6028;BME280;3042;43.194;27.646;2023-02-21T09:52:31;101013.19;;;24.32;51.90
6028;BME280;3042;43.194;27.646;2023-02-21T09:55:04;101028.94;;;24.50;52.16
6028;BME280;3042;43.194;27.646;2023-02-21T09:57:33;101012.13;;;24.59;51.61
6028;BME280;3042;43.194;27.646;2023-02-21T10:00:00;101010.22;;;24.75;51.77
6028;BME280;3042;43.194;27.646;2023-02-21T10:02:41;100985.97;;;25.18;51.72
6028;BME280;3042;43.194;27.646;2023-02-21T10:05:17;100806.63;;;23.99;50.52
6028;BME280;3042;43.194;27.646;2023-02-21T10:07:58;100961.81;;;25.42;50.61
6028;BME280;3042;43.194;27.646;2023-02-21T10:10:30;100953.63;;;25.61;50.40
6028;BME280;3042;43.194;27.646;2023-02-21T10:13:05;100913.28;;;24.75;49.40
6028;BME280;3042;43.194;27.646;2023-02-21T10:15:42;100948.59;;;25.44;49.08
6028;BME280;3042;43.194;27.646;2023-02-21T10:18:24;100943.22;;;25.48;49.10
6028;BME280;3042;43.194;27.646;2023-02-21T10:20:59;100936.75;;;25.69;48.54
6028;BME280;3042;43.194;27.646;2023-02-21T10:23:36;100925.16;;;25.78;48.46
6028;BME280;3042;43.194;27.646;2023-02-21T10:26:06;100937.88;;;25.52;48.16
6028;BME280;3042;43.194;27.646;2023-02-21T10:28:35;100932.47;;;25.61;48.06
6028;BME280;3042;43.194;27.646;2023-02-21T10:31:06;100934.22;;;25.62;48.15
6028;BME280;3042;43.194;27.646;2023-02-21T10:33:36;100857.22;;;25.20;48.05
6028;BME280;3042;43.194;27.646;2023-02-21T10:36:10;100881.81;;;25.25;47.53
6028;BME280;3042;43.194;27.646;2023-02-21T10:38:52;100909.59;;;25.57;47.57
6028;BME280;3042;43.194;27.646;2023-02-21T10:41:21;100810.72;;;25.00;47.34
6028;BME280;3042;43.194;27.646;2023-02-21T10:43:51;100796.63;;;25.01;47.02
6028;BME280;3042;43.194;27.646;2023-02-21T10:46:25;100879.53;;;25.61;46.84
6028;BME280;3042;43.194;27.646;2023-02-21T10:49:09;100776.19;;;25.13;46.70
6028;BME280;3042;43.194;27.646;2023-02-21T10:51:42;100906.25;;;25.42;46.38
6028;BME280;3042;43.194;27.646;2023-02-21T10:54:19;100834.44;;;25.67;46.03
6028;BME280;3042;43.194;27.646;2023-02-21T10:56:46;100814.56;;;25.41;46.24
6028;BME280;3042;43.194;27.646;2023-02-21T10:59:20;100816.63;;;25.24;45.71
6028;BME280;3042;43.194;27.646;2023-02-21T11:01:48;100850.84;;;25.90;45.63
6028;BME280;3042;43.194;27.646;2023-02-21T11:04:25;100851.75;;;25.89;44.98
6028;BME280;3042;43.194;27.646;2023-02-21T11:07:00;100857.31;;;25.71;44.69
6028;BME280;3042;43.194;27.646;2023-02-21T11:09:40;100694.19;;;24.55;44.77
6028;BME280;3042;43.194;27.646;2023-02-21T11:12:20;100862.38;;;25.29;44.71
6028;BME280;3042;43.194;27.646;2023-02-21T11:15:05;100854.31;;;25.37;44.32
6028;BME280;3042;43.194;27.646;2023-02-21T11:17:41;100809.47;;;25.29;44.93
6028;BME280;3042;43.194;27.646;2023-02-21T11:20:18;100855.78;;;25.56;44.48
6028;BME280;3042;43.194;27.646;2023-02-21T11:22:49;100807.94;;;25.13;44.67
6028;BME280;3042;43.194;27.646;2023-02-21T11:25:23;100826.63;;;25.59;44.24
6028;BME280;3042;43.194;27.646;2023-02-21T11:28:01;100825.03;;;26.02;44.20
6028;BME280;3042;43.194;27.646;2023-02-21T11:30:30;100832.31;;;25.90;43.92
6028;BME280;3042;43.194;27.646;2023-02-21T11:32:59;100818.91;;;26.00;43.60
6028;BME280;3042;43.194;27.646;2023-02-21T11:35:34;100726.81;;;25.66;43.64
6028;BME280;3042;43.194;27.646;2023-02-21T11:38:03;100831.66;;;25.76;43.27
6028;BME280;3042;43.194;27.646;2023-02-21T11:40:42;100767.94;;;25.36;43.24
6028;BME280;3042;43.194;27.646;2023-02-21T11:43:21;100763.72;;;25.24;43.04
6028;BME280;3042;43.194;27.646;2023-02-21T11:46:22;100827.00;;;25.90;42.91
6028;BME280;3042;43.194;27.646;2023-02-21T11:49:00;100835.16;;;25.75;42.62
6028;BME280;3042;43.194;27.646;2023-02-21T11:51:38;100838.78;;;25.71;42.75
6028;BME280;3042;43.194;27.646;2023-02-21T11:54:07;100838.88;;;25.65;42.61
6028;BME280;3042;43.194;27.646;2023-02-21T11:56:46;100828.16;;;25.74;42.93
6028;BME280;3042;43.194;27.646;2023-02-21T11:59:24;100820.13;;;25.77;42.93
6028;BME280;3042;43.194;27.646;2023-02-21T12:02:13;100819.44;;;25.66;43.07
6028;BME280;3042;43.194;27.646;2023-02-21T12:04:55;100824.69;;;25.69;42.70
6028;BME280;3042;43.194;27.646;2023-02-21T12:07:33;100817.56;;;25.74;43.22
6028;BME280;3042;43.194;27.646;2023-02-21T12:10:12;100810.63;;;25.67;42.74
6028;BME280;3042;43.194;27.646;2023-02-21T12:12:53;100821.38;;;25.56;42.76
6028;BME280;3042;43.194;27.646;2023-02-21T12:15:25;100819.66;;;25.54;42.90
6028;BME280;3042;43.194;27.646;2023-02-21T12:18:07;100763.66;;;25.27;42.56
6028;BME280;3042;43.194;27.646;2023-02-21T12:20:54;100681.50;;;24.79;42.72
6028;BME280;3042;43.194;27.646;2023-02-21T12:23:31;100815.22;;;25.54;42.52
6028;BME280;3042;43.194;27.646;2023-02-21T12:26:17;100807.41;;;25.46;42.25
6028;BME280;3042;43.194;27.646;2023-02-21T12:29:05;100786.41;;;25.37;41.86
6028;BME280;3042;43.194;27.646;2023-02-21T12:31:45;100790.03;;;25.32;42.36
6028;BME280;3042;43.194;27.646;2023-02-21T12:34:24;100826.16;;;25.33;41.98
6028;BME280;3042;43.194;27.646;2023-02-21T12:37:17;100797.59;;;25.55;41.70
6028;BME280;3042;43.194;27.646;2023-02-21T12:40:03;100805.34;;;25.65;42.03
6028;BME280;3042;43.194;27.646;2023-02-21T12:42:48;100814.56;;;25.41;42.39
6028;BME280;3042;43.194;27.646;2023-02-21T12:45:37;100811.41;;;25.18;42.12
6028;BME280;3042;43.194;27.646;2023-02-21T12:48:13;100767.47;;;25.08;42.23
6028;BME280;3042;43.194;27.646;2023-02-21T12:50:47;100809.41;;;25.32;42.40
6028;BME280;3042;43.194;27.646;2023-02-21T12:53:17;100815.56;;;25.33;42.80
6028;BME280;3042;43.194;27.646;2023-02-21T12:55:47;100729.31;;;24.63;42.85
6028;BME280;3042;43.194;27.646;2023-02-21T12:58:21;100813.13;;;25.19;43.26
6028;BME280;3042;43.194;27.646;2023-02-21T13:00:59;100808.63;;;25.27;42.60
6028;BME280;3042;43.194;27.646;2023-02-21T13:03:38;100802.53;;;25.22;43.00
6028;BME280;3042;43.194;27.646;2023-02-21T13:06:13;100823.94;;;25.00;43.15
6028;BME280;3042;43.194;27.646;2023-02-21T13:08:52;100802.78;;;25.00;43.13
6028;BME280;3042;43.194;27.646;2023-02-21T13:11:26;100783.53;;;24.92;42.96
6028;BME280;3042;43.194;27.646;2023-02-21T13:13:57;100802.53;;;25.22;43.26
6028;BME280;3042;43.194;27.646;2023-02-21T13:16:27;100800.69;;;25.27;43.39
6028;BME280;3042;43.194;27.646;2023-02-21T13:18:57;100808.25;;;25.50;43.21
6028;BME280;3042;43.194;27.646;2023-02-21T13:21:36;100696.13;;;25.03;43.10
6028;BME280;3042;43.194;27.646;2023-02-21T13:24:27;100793.94;;;25.62;42.76
6028;BME280;3042;43.194;27.646;2023-02-21T13:27:18;100753.66;;;24.87;42.19
6028;BME280;3042;43.194;27.646;2023-02-21T13:29:48;100815.94;;;25.05;42.44
6028;BME280;3042;43.194;27.646;2023-02-21T13:32:18;100808.50;;;25.33;42.46
6028;BME280;3042;43.194;27.646;2023-02-21T13:34:54;100761.44;;;24.96;42.51
6028;BME280;3042;43.194;27.646;2023-02-21T13:37:24;100813.34;;;25.03;43.04
6028;BME280;3042;43.194;27.646;2023-02-21T13:39:54;100809.91;;;24.98;42.66
6028;BME280;3042;43.194;27.646;2023-02-21T13:42:25;100734.44;;;24.74;42.82